sensor_id;sensor_type;location;lat;lon;timestamp;temperature;humidity
16229;DHT22;8222;51.462;12.630;2023-05-21T00:02:13;16.20;99.90
16229;DHT22;8222;51.462;12.630;2023-05-21T00:04:43;16.10;99.90
16229;DHT22;8222;51.462;12.630;2023-05-21T00:07:13;16.10;99.90
16229;DHT22;8222;51.462;12.630;2023-05-21T00:09:41;16.20;99.90
16229;DHT22;8222;51.462;12.630;2023-05-21T00:12:08;16.30;99.90
16229;DHT22;8222;51.462;12.630;2023-05-21T00:14:36;16.20;99.90
16229;DHT22;8222;51.462;12.630;2023-05-21T00:17:04;16.10;99.90
16229;DHT22;8222;51.462;12.630;2023-05-21T00:19:32;16.20;99.90
16229;DHT22;8222;51.462;12.630;2023-05-21T00:22:00;16.20;99.90
16229;DHT22;8222;51.462;12.630;2023-05-21T00:24:29;16.20;99.90
16229;DHT22;8222;51.462;12.630;2023-05-21T00:26:54;16.20;99.90
16229;DHT22;8222;51.462;12.630;2023-05-21T00:29:23;16.30;99.90
16229;DHT22;8222;51.462;12.630;2023-05-21T00:31:48;16.20;99.90
16229;DHT22;8222;51.462;12.630;2023-05-21T00:34:15;16.20;99.90
16229;DHT22;8222;51.462;12.630;2023-05-21T00:36:44;16.20;99.90
16229;DHT22;8222;51.462;12.630;2023-05-21T00:39:10;16.10;99.90
16229;DHT22;8222;51.462;12.630;2023-05-21T00:41:37;16.20;99.90
16229;DHT22;8222;51.462;12.630;2023-05-21T00:44:09;16.20;99.90
16229;DHT22;8222;51.462;12.630;2023-05-21T00:46:39;16.00;99.90
16229;DHT22;8222;51.462;12.630;2023-05-21T00:49:05;15.90;99.90
16229;DHT22;8222;51.462;12.630;2023-05-21T00:51:32;15.80;99.90
16229;DHT22;8222;51.462;12.630;2023-05-21T00:54:03;15.80;99.90
16229;DHT22;8222;51.462;12.630;2023-05-21T00:56:28;15.80;99.90
16229;DHT22;8222;51.462;12.630;2023-05-21T00:58:55;15.70;99.90
16229;DHT22;8222;51.462;12.630;2023-05-21T01:01:30;15.70;99.90
16229;DHT22;8222;51.462;12.630;2023-05-21T01:04:00;15.70;99.90
16229;DHT22;8222;51.462;12.630;2023-05-21T01:06:28;15.70;99.90
16229;DHT22;8222;51.462;12.630;2023-05-21T01:08:55;15.70;99.90
16229;DHT22;8222;51.462;12.630;2023-05-21T01:11:39;15.70;99.90
16229;DHT22;8222;51.462;12.630;2023-05-21T01:14:06;15.60;99.90
16229;DHT22;8222;51.462;12.630;2023-05-21T01:16:38;15.70;99.90
16229;DHT22;8222;51.462;12.630;2023-05-21T01:19:10;15.60;99.90
16229;DHT22;8222;51.462;12.630;2023-05-21T01:21:45;15.70;99.90
16229;DHT22;8222;51.462;12.630;2023-05-21T01:24:18;15.60;99.90
16229;DHT22;8222;51.462;12.630;2023-05-21T01:26:44;15.70;99.90
16229;DHT22;8222;51.462;12.630;2023-05-21T01:29:11;15.80;99.90
16229;DHT22;8222;51.462;12.630;2023-05-21T01:32:03;15.80;99.90
16229;DHT22;8222;51.462;12.630;2023-05-21T01:34:41;15.80;99.90
16229;DHT22;8222;51.462;12.630;2023-05-21T01:37:13;15.90;99.90
16229;DHT22;8222;51.462;12.630;2023-05-21T01:39:50;15.80;99.90
16229;DHT22;8222;51.462;12.630;2023-05-21T01:42:17;15.70;99.90
16229;DHT22;8222;51.462;12.630;2023-05-21T01:44:46;15.60;99.90
16229;DHT22;8222;51.462;12.630;2023-05-21T01:47:16;15.60;99.90
16229;DHT22;8222;51.462;12.630;2023-05-21T01:49:42;15.60;99.90
16229;DHT22;8222;51.462;12.630;2023-05-21T01:52:08;15.40;99.90
16229;DHT22;8222;51.462;12.630;2023-05-21T01:54:36;15.40;99.90
16229;DHT22;8222;51.462;12.630;2023-05-21T01:57:02;15.40;99.90
16229;DHT22;8222;51.462;12.630;2023-05-21T01:59:28;15.40;99.90
16229;DHT22;8222;51.462;12.630;2023-05-21T02:01:54;15.50;99.90
16229;DHT22;8222;51.462;12.630;2023-05-21T02:04:20;15.40;99.90
16229;DHT22;8222;51.462;12.630;2023-05-21T02:06:45;15.30;99.90
16229;DHT22;8222;51.462;12.630;2023-05-21T02:09:11;15.30;99.90
16229;DHT22;8222;51.462;12.630;2023-05-21T02:11:39;15.20;99.90
16229;DHT22;8222;51.462;12.630;2023-05-21T02:14:05;15.20;99.90
16229;DHT22;8222;51.462;12.630;2023-05-21T02:16:32;15.10;99.90
16229;DHT22;8222;51.462;12.630;2023-05-21T02:19:01;15.10;99.90
16229;DHT22;8222;51.462;12.630;2023-05-21T02:21:29;15.10;99.90
16229;DHT22;8222;51.462;12.630;2023-05-21T02:23:57;15.10;99.90
16229;DHT22;8222;51.462;12.630;2023-05-21T02:26:23;15.10;99.90
16229;DHT22;8222;51.462;12.630;2023-05-21T02:28:49;15.10;99.90
16229;DHT22;8222;51.462;12.630;2023-05-21T02:31:14;15.20;99.90
16229;DHT22;8222;51.462;12.630;2023-05-21T02:33:41;15.20;99.90
16229;DHT22;8222;51.462;12.630;2023-05-21T02:36:09;15.10;99.90
16229;DHT22;8222;51.462;12.630;2023-05-21T02:38:40;15.20;99.90
16229;DHT22;8222;51.462;12.630;2023-05-21T02:41:08;15.20;99.90
16229;DHT22;8222;51.462;12.630;2023-05-21T02:43:35;15.30;99.90
16229;DHT22;8222;51.462;12.630;2023-05-21T02:46:04;15.20;99.90
16229;DHT22;8222;51.462;12.630;2023-05-21T02:48:30;15.20;99.90
16229;DHT22;8222;51.462;12.630;2023-05-21T02:50:58;15.10;99.90
16229;DHT22;8222;51.462;12.630;2023-05-21T02:53:24;15.10;99.90
16229;DHT22;8222;51.462;12.630;2023-05-21T02:55:53;15.00;99.90
16229;DHT22;8222;51.462;12.630;2023-05-21T02:58:19;15.00;99.90
16229;DHT22;8222;51.462;12.630;2023-05-21T03:00:50;15.00;99.90
16229;DHT22;8222;51.462;12.630;2023-05-21T03:03:16;14.90;99.90
16229;DHT22;8222;51.462;12.630;2023-05-21T03:05:41;14.90;99.90
16229;DHT22;8222;51.462;12.630;2023-05-21T03:08:07;14.90;99.90
16229;DHT22;8222;51.462;12.630;2023-05-21T03:10:33;14.90;99.90
16229;DHT22;8222;51.462;12.630;2023-05-21T03:12:58;15.00;99.90
16229;DHT22;8222;51.462;12.630;2023-05-21T03:15:25;15.00;99.90
16229;DHT22;8222;51.462;12.630;2023-05-21T03:17:58;15.00;99.90
16229;DHT22;8222;51.462;12.630;2023-05-21T03:20:23;14.90;99.90
16229;DHT22;8222;51.462;12.630;2023-05-21T03:22:49;15.00;99.90
16229;DHT22;8222;51.462;12.630;2023-05-21T03:25:14;15.00;99.90
16229;DHT22;8222;51.462;12.630;2023-05-21T03:27:40;15.00;99.90
16229;DHT22;8222;51.462;12.630;2023-05-21T03:30:08;15.00;99.90
16229;DHT22;8222;51.462;12.630;2023-05-21T03:32:34;15.20;99.90
16229;DHT22;8222;51.462;12.630;2023-05-21T03:35:04;15.20;99.90
16229;DHT22;8222;51.462;12.630;2023-05-21T03:37:31;15.20;99.90
16229;DHT22;8222;51.462;12.630;2023-05-21T03:39:56;15.20;99.90
16229;DHT22;8222;51.462;12.630;2023-05-21T03:42:22;15.40;99.90
16229;DHT22;8222;51.462;12.630;2023-05-21T03:44:47;15.40;99.90
16229;DHT22;8222;51.462;12.630;2023-05-21T03:47:13;15.60;99.90
16229;DHT22;8222;51.462;12.630;2023-05-21T03:49:41;15.70;99.90
16229;DHT22;8222;51.462;12.630;2023-05-21T03:52:09;15.60;99.90
16229;DHT22;8222;51.462;12.630;2023-05-21T03:54:35;15.50;99.90
16229;DHT22;8222;51.462;12.630;2023-05-21T03:57:01;15.50;99.90
16229;DHT22;8222;51.462;12.630;2023-05-21T03:59:31;15.50;99.90
16229;DHT22;8222;51.462;12.630;2023-05-21T04:01:57;15.60;99.90
16229;DHT22;8222;51.462;12.630;2023-05-21T04:04:22;15.70;99.90
16229;DHT22;8222;51.462;12.630;2023-05-21T04:06:51;15.70;99.90
16229;DHT22;8222;51.462;12.630;2023-05-21T04:09:18;15.60;99.90
16229;DHT22;8222;51.462;12.630;2023-05-21T04:11:48;15.60;99.90
16229;DHT22;8222;51.462;12.630;2023-05-21T04:14:16;15.80;99.90
16229;DHT22;8222;51.462;12.630;2023-05-21T04:16:44;15.70;99.90
16229;DHT22;8222;51.462;12.630;2023-05-21T04:19:13;15.70;99.90
16229;DHT22;8222;51.462;12.630;2023-05-21T04:21:39;15.80;99.90
16229;DHT22;8222;51.462;12.630;2023-05-21T04:24:05;15.80;99.90
16229;DHT22;8222;51.462;12.630;2023-05-21T04:26:31;15.80;99.90
16229;DHT22;8222;51.462;12.630;2023-05-21T04:29:01;15.90;99.90
16229;DHT22;8222;51.462;12.630;2023-05-21T04:31:29;16.10;99.90
16229;DHT22;8222;51.462;12.630;2023-05-21T04:33:57;16.20;99.90
16229;DHT22;8222;51.462;12.630;2023-05-21T04:36:23;16.20;99.90
16229;DHT22;8222;51.462;12.630;2023-05-21T04:38:49;16.20;99.90
16229;DHT22;8222;51.462;12.630;2023-05-21T04:41:15;16.10;99.90
16229;DHT22;8222;51.462;12.630;2023-05-21T04:43:43;16.20;99.90
16229;DHT22;8222;51.462;12.630;2023-05-21T04:46:09;16.20;99.90
16229;DHT22;8222;51.462;12.630;2023-05-21T04:48:37;16.30;99.90
16229;DHT22;8222;51.462;12.630;2023-05-21T04:51:05;16.20;99.90
16229;DHT22;8222;51.462;12.630;2023-05-21T04:53:33;16.30;99.90
16229;DHT22;8222;51.462;12.630;2023-05-21T04:56:00;16.30;99.90
16229;DHT22;8222;51.462;12.630;2023-05-21T04:58:27;16.50;99.90
16229;DHT22;8222;51.462;12.630;2023-05-21T05:00:57;16.60;99.90
16229;DHT22;8222;51.462;12.630;2023-05-21T05:03:27;16.80;99.90
16229;DHT22;8222;51.462;12.630;2023-05-21T05:05:53;16.80;99.90
16229;DHT22;8222;51.462;12.630;2023-05-21T05:08:20;16.80;99.90
16229;DHT22;8222;51.462;12.630;2023-05-21T05:10:46;16.90;99.90
16229;DHT22;8222;51.462;12.630;2023-05-21T05:13:12;17.00;99.90
16229;DHT22;8222;51.462;12.630;2023-05-21T05:15:38;17.10;99.90
16229;DHT22;8222;51.462;12.630;2023-05-21T05:18:03;17.30;99.90
16229;DHT22;8222;51.462;12.630;2023-05-21T05:20:29;17.40;99.90
16229;DHT22;8222;51.462;12.630;2023-05-21T05:22:55;17.40;99.90
16229;DHT22;8222;51.462;12.630;2023-05-21T05:25:21;17.50;99.90
16229;DHT22;8222;51.462;12.630;2023-05-21T05:27:46;17.50;99.90
16229;DHT22;8222;51.462;12.630;2023-05-21T05:30:15;17.60;99.90
16229;DHT22;8222;51.462;12.630;2023-05-21T05:32:43;17.50;99.90
16229;DHT22;8222;51.462;12.630;2023-05-21T05:35:09;17.40;99.90
16229;DHT22;8222;51.462;12.630;2023-05-21T05:37:35;17.40;99.90
16229;DHT22;8222;51.462;12.630;2023-05-21T05:40:00;17.40;99.90
16229;DHT22;8222;51.462;12.630;2023-05-21T05:42:26;17.40;99.90
16229;DHT22;8222;51.462;12.630;2023-05-21T05:44:52;17.50;99.90
16229;DHT22;8222;51.462;12.630;2023-05-21T05:47:17;17.50;99.90
16229;DHT22;8222;51.462;12.630;2023-05-21T05:49:43;17.60;99.90
16229;DHT22;8222;51.462;12.630;2023-05-21T05:52:09;17.70;99.90
16229;DHT22;8222;51.462;12.630;2023-05-21T05:54:35;17.80;99.90
16229;DHT22;8222;51.462;12.630;2023-05-21T05:57:00;17.80;99.90
16229;DHT22;8222;51.462;12.630;2023-05-21T05:59:26;17.80;99.90
16229;DHT22;8222;51.462;12.630;2023-05-21T06:01:52;17.90;99.90
16229;DHT22;8222;51.462;12.630;2023-05-21T06:04:20;18.20;99.90
16229;DHT22;8222;51.462;12.630;2023-05-21T06:06:48;18.20;99.90
16229;DHT22;8222;51.462;12.630;2023-05-21T06:09:16;18.30;99.90
16229;DHT22;8222;51.462;12.630;2023-05-21T06:11:42;18.30;99.90
16229;DHT22;8222;51.462;12.630;2023-05-21T06:14:08;18.50;99.90
16229;DHT22;8222;51.462;12.630;2023-05-21T06:16:35;18.70;99.90
16229;DHT22;8222;51.462;12.630;2023-05-21T06:19:01;18.70;99.90
16229;DHT22;8222;51.462;12.630;2023-05-21T06:21:27;18.90;99.90
16229;DHT22;8222;51.462;12.630;2023-05-21T06:23:53;19.00;99.90
16229;DHT22;8222;51.462;12.630;2023-05-21T06:26:23;19.00;99.90
16229;DHT22;8222;51.462;12.630;2023-05-21T06:28:49;19.20;99.90
16229;DHT22;8222;51.462;12.630;2023-05-21T06:31:17;19.30;99.90
16229;DHT22;8222;51.462;12.630;2023-05-21T06:33:43;19.50;99.90
16229;DHT22;8222;51.462;12.630;2023-05-21T06:36:11;19.70;99.90
16229;DHT22;8222;51.462;12.630;2023-05-21T06:38:37;19.80;99.90
16229;DHT22;8222;51.462;12.630;2023-05-21T06:41:02;20.00;99.90
16229;DHT22;8222;51.462;12.630;2023-05-21T06:43:28;20.10;99.90
16229;DHT22;8222;51.462;12.630;2023-05-21T06:45:54;20.20;99.90
16229;DHT22;8222;51.462;12.630;2023-05-21T06:48:20;20.20;99.90
16229;DHT22;8222;51.462;12.630;2023-05-21T06:50:45;20.10;99.90
16229;DHT22;8222;51.462;12.630;2023-05-21T06:53:11;20.30;99.90
16229;DHT22;8222;51.462;12.630;2023-05-21T06:55:41;20.30;99.90
16229;DHT22;8222;51.462;12.630;2023-05-21T06:58:10;20.30;99.90
16229;DHT22;8222;51.462;12.630;2023-05-21T07:00:35;20.50;99.90
16229;DHT22;8222;51.462;12.630;2023-05-21T07:03:04;20.60;99.90
16229;DHT22;8222;51.462;12.630;2023-05-21T07:05:30;20.80;99.90
16229;DHT22;8222;51.462;12.630;2023-05-21T07:07:55;20.90;99.90
16229;DHT22;8222;51.462;12.630;2023-05-21T07:10:23;21.20;99.90
16229;DHT22;8222;51.462;12.630;2023-05-21T07:12:49;21.00;99.90
16229;DHT22;8222;51.462;12.630;2023-05-21T07:15:17;21.00;99.90
16229;DHT22;8222;51.462;12.630;2023-05-21T07:17:43;21.10;99.90
16229;DHT22;8222;51.462;12.630;2023-05-21T07:20:09;21.40;99.90
16229;DHT22;8222;51.462;12.630;2023-05-21T07:22:37;21.50;99.90
16229;DHT22;8222;51.462;12.630;2023-05-21T07:25:06;21.60;99.90
16229;DHT22;8222;51.462;12.630;2023-05-21T07:27:32;21.80;99.90
16229;DHT22;8222;51.462;12.630;2023-05-21T07:29:57;22.00;99.90
16229;DHT22;8222;51.462;12.630;2023-05-21T07:32:27;22.20;99.90
16229;DHT22;8222;51.462;12.630;2023-05-21T07:34:54;22.10;99.90
16229;DHT22;8222;51.462;12.630;2023-05-21T07:37:27;22.30;99.90
16229;DHT22;8222;51.462;12.630;2023-05-21T07:39:55;22.40;99.90
16229;DHT22;8222;51.462;12.630;2023-05-21T07:42:26;22.80;99.90
16229;DHT22;8222;51.462;12.630;2023-05-21T07:44:52;22.80;99.90
16229;DHT22;8222;51.462;12.630;2023-05-21T07:47:20;22.90;99.90
16229;DHT22;8222;51.462;12.630;2023-05-21T07:49:48;23.00;99.90
16229;DHT22;8222;51.462;12.630;2023-05-21T07:52:16;23.10;99.90
16229;DHT22;8222;51.462;12.630;2023-05-21T07:54:42;23.10;99.90
16229;DHT22;8222;51.462;12.630;2023-05-21T07:57:08;23.20;99.90
16229;DHT22;8222;51.462;12.630;2023-05-21T07:59:33;23.20;99.90
16229;DHT22;8222;51.462;12.630;2023-05-21T08:01:59;23.60;99.90
16229;DHT22;8222;51.462;12.630;2023-05-21T08:04:25;23.50;99.90
16229;DHT22;8222;51.462;12.630;2023-05-21T08:06:53;23.60;99.90
16229;DHT22;8222;51.462;12.630;2023-05-21T08:09:19;23.60;99.90
16229;DHT22;8222;51.462;12.630;2023-05-21T08:11:45;23.70;99.90
16229;DHT22;8222;51.462;12.630;2023-05-21T08:14:11;23.70;99.90
16229;DHT22;8222;51.462;12.630;2023-05-21T08:16:37;23.90;99.90
16229;DHT22;8222;51.462;12.630;2023-05-21T08:19:03;24.00;99.90
16229;DHT22;8222;51.462;12.630;2023-05-21T08:21:31;24.00;99.90
16229;DHT22;8222;51.462;12.630;2023-05-21T08:23:58;24.20;99.90
16229;DHT22;8222;51.462;12.630;2023-05-21T08:26:24;24.30;99.90
16229;DHT22;8222;51.462;12.630;2023-05-21T08:28:53;24.40;99.90
16229;DHT22;8222;51.462;12.630;2023-05-21T08:31:22;24.60;99.90
16229;DHT22;8222;51.462;12.630;2023-05-21T08:33:53;24.50;99.90
16229;DHT22;8222;51.462;12.630;2023-05-21T08:36:20;24.50;99.90
16229;DHT22;8222;51.462;12.630;2023-05-21T08:38:47;24.60;99.90
16229;DHT22;8222;51.462;12.630;2023-05-21T08:41:12;24.70;99.90
16229;DHT22;8222;51.462;12.630;2023-05-21T08:43:39;25.00;99.90
16229;DHT22;8222;51.462;12.630;2023-05-21T08:46:08;24.90;99.90
16229;DHT22;8222;51.462;12.630;2023-05-21T08:48:36;24.70;99.90
16229;DHT22;8222;51.462;12.630;2023-05-21T08:51:03;24.70;99.90
16229;DHT22;8222;51.462;12.630;2023-05-21T08:53:32;24.60;99.90
16229;DHT22;8222;51.462;12.630;2023-05-21T08:55:58;24.80;99.90
16229;DHT22;8222;51.462;12.630;2023-05-21T08:58:25;25.10;99.90
16229;DHT22;8222;51.462;12.630;2023-05-21T09:00:52;25.10;99.90
16229;DHT22;8222;51.462;12.630;2023-05-21T09:03:23;25.30;99.90
16229;DHT22;8222;51.462;12.630;2023-05-21T09:05:50;25.40;99.90
16229;DHT22;8222;51.462;12.630;2023-05-21T09:08:34;25.50;99.90
16229;DHT22;8222;51.462;12.630;2023-05-21T09:11:00;25.50;99.90
16229;DHT22;8222;51.462;12.630;2023-05-21T09:13:30;25.60;99.90
16229;DHT22;8222;51.462;12.630;2023-05-21T09:16:00;25.60;99.90
16229;DHT22;8222;51.462;12.630;2023-05-21T09:18:25;25.60;99.90
16229;DHT22;8222;51.462;12.630;2023-05-21T09:20:56;25.60;99.90
16229;DHT22;8222;51.462;12.630;2023-05-21T09:23:21;25.70;99.90
16229;DHT22;8222;51.462;12.630;2023-05-21T09:25:48;25.70;99.90
16229;DHT22;8222;51.462;12.630;2023-05-21T09:28:17;25.80;99.90
16229;DHT22;8222;51.462;12.630;2023-05-21T09:30:47;26.00;99.90
16229;DHT22;8222;51.462;12.630;2023-05-21T09:33:27;26.30;99.90
16229;DHT22;8222;51.462;12.630;2023-05-21T09:35:56;26.20;99.90
16229;DHT22;8222;51.462;12.630;2023-05-21T09:38:28;26.60;99.90
16229;DHT22;8222;51.462;12.630;2023-05-21T09:40:56;26.60;99.90
16229;DHT22;8222;51.462;12.630;2023-05-21T09:43:31;26.90;99.90
16229;DHT22;8222;51.462;12.630;2023-05-21T09:45:58;27.10;99.90
16229;DHT22;8222;51.462;12.630;2023-05-21T09:48:38;27.40;99.90
16229;DHT22;8222;51.462;12.630;2023-05-21T09:51:25;27.30;99.90
16229;DHT22;8222;51.462;12.630;2023-05-21T09:53:55;27.40;99.90
16229;DHT22;8222;51.462;12.630;2023-05-21T09:56:38;27.40;99.90
16229;DHT22;8222;51.462;12.630;2023-05-21T09:59:10;27.40;99.90
16229;DHT22;8222;51.462;12.630;2023-05-21T10:01:38;27.50;99.90
16229;DHT22;8222;51.462;12.630;2023-05-21T10:04:09;27.50;99.90
16229;DHT22;8222;51.462;12.630;2023-05-21T10:06:46;27.70;99.90
16229;DHT22;8222;51.462;12.630;2023-05-21T10:09:14;27.50;99.90
16229;DHT22;8222;51.462;12.630;2023-05-21T10:11:59;27.70;99.90
16229;DHT22;8222;51.462;12.630;2023-05-21T10:14:31;27.70;99.90
16229;DHT22;8222;51.462;12.630;2023-05-21T10:17:33;27.80;99.90
16229;DHT22;8222;51.462;12.630;2023-05-21T10:20:24;28.20;99.90
16229;DHT22;8222;51.462;12.630;2023-05-21T10:23:22;28.20;99.90
16229;DHT22;8222;51.462;12.630;2023-05-21T10:29:11;28.40;99.90
16229;DHT22;8222;51.462;12.630;2023-05-21T10:32:28;28.80;99.90
16229;DHT22;8222;51.462;12.630;2023-05-21T10:35:18;29.10;99.90
16229;DHT22;8222;51.462;12.630;2023-05-21T10:38:02;29.20;99.90
16229;DHT22;8222;51.462;12.630;2023-05-21T10:41:21;29.40;99.90
16229;DHT22;8222;51.462;12.630;2023-05-21T11:04:22;30.10;80.80
16229;DHT22;8222;51.462;12.630;2023-05-21T11:07:21;30.10;80.10
16229;DHT22;8222;51.462;12.630;2023-05-21T11:17:43;30.10;76.50
16229;DHT22;8222;51.462;12.630;2023-05-21T11:20:35;30.40;76.60
16229;DHT22;8222;51.462;12.630;2023-05-21T11:23:55;30.20;68.50
16229;DHT22;8222;51.462;12.630;2023-05-21T11:40:18;30.30;65.50
16229;DHT22;8222;51.462;12.630;2023-05-21T11:43:24;30.50;67.30
16229;DHT22;8222;51.462;12.630;2023-05-21T11:49:48;30.80;65.30
16229;DHT22;8222;51.462;12.630;2023-05-21T11:52:35;31.40;65.80
16229;DHT22;8222;51.462;12.630;2023-05-21T12:35:29;31.40;64.40
16229;DHT22;8222;51.462;12.630;2023-05-21T12:56:47;30.60;70.50
16229;DHT22;8222;51.462;12.630;2023-05-21T13:12:13;30.60;71.10
16229;DHT22;8222;51.462;12.630;2023-05-21T13:15:03;30.50;73.20
16229;DHT22;8222;51.462;12.630;2023-05-21T13:21:41;30.70;75.10
16229;DHT22;8222;51.462;12.630;2023-05-21T13:31:59;30.70;72.80
16229;DHT22;8222;51.462;12.630;2023-05-21T13:35:30;30.60;72.10
16229;DHT22;8222;51.462;12.630;2023-05-21T13:48:50;30.20;68.30
16229;DHT22;8222;51.462;12.630;2023-05-21T13:52:15;30.30;64.90
16229;DHT22;8222;51.462;12.630;2023-05-21T13:54:59;30.50;66.70
16229;DHT22;8222;51.462;12.630;2023-05-21T13:58:06;30.70;66.90
16229;DHT22;8222;51.462;12.630;2023-05-21T14:04:01;31.20;67.80
16229;DHT22;8222;51.462;12.630;2023-05-21T14:09:27;30.80;72.60
16229;DHT22;8222;51.462;12.630;2023-05-21T14:12:01;30.60;72.60
16229;DHT22;8222;51.462;12.630;2023-05-21T14:15:04;30.30;74.40
16229;DHT22;8222;51.462;12.630;2023-05-21T14:18:16;30.00;75.30
16229;DHT22;8222;51.462;12.630;2023-05-21T14:21:02;30.20;78.00
16229;DHT22;8222;51.462;12.630;2023-05-21T14:23:39;30.10;76.60
16229;DHT22;8222;51.462;12.630;2023-05-21T14:26:26;29.70;78.60
16229;DHT22;8222;51.462;12.630;2023-05-21T14:29:06;29.40;79.70
16229;DHT22;8222;51.462;12.630;2023-05-21T14:32:09;29.60;83.20
16229;DHT22;8222;51.462;12.630;2023-05-21T14:35:09;29.70;81.20
16229;DHT22;8222;51.462;12.630;2023-05-21T14:38:23;29.70;76.40
16229;DHT22;8222;51.462;12.630;2023-05-21T14:40:40;29.70;77.70
16229;DHT22;8222;51.462;12.630;2023-05-21T14:43:51;29.70;75.90
16229;DHT22;8222;51.462;12.630;2023-05-21T14:49:16;29.90;74.00
16229;DHT22;8222;51.462;12.630;2023-05-21T14:52:17;30.10;74.10
16229;DHT22;8222;51.462;12.630;2023-05-21T14:54:51;30.00;71.70
16229;DHT22;8222;51.462;12.630;2023-05-21T14:57:41;30.10;72.70
16229;DHT22;8222;51.462;12.630;2023-05-21T15:00:15;30.40;71.10
16229;DHT22;8222;51.462;12.630;2023-05-21T15:03:06;30.50;69.40
16229;DHT22;8222;51.462;12.630;2023-05-21T15:05:57;30.60;70.50
16229;DHT22;8222;51.462;12.630;2023-05-21T15:08:23;30.70;70.20
16229;DHT22;8222;51.462;12.630;2023-05-21T15:11:17;30.30;69.40
16229;DHT22;8222;51.462;12.630;2023-05-21T15:13:46;30.20;71.30
16229;DHT22;8222;51.462;12.630;2023-05-21T15:16:16;30.50;69.80
16229;DHT22;8222;51.462;12.630;2023-05-21T15:18:47;30.40;70.50
16229;DHT22;8222;51.462;12.630;2023-05-21T15:21:42;30.30;69.80
16229;DHT22;8222;51.462;12.630;2023-05-21T15:24:21;30.40;69.40
16229;DHT22;8222;51.462;12.630;2023-05-21T15:26:47;30.30;69.60
16229;DHT22;8222;51.462;12.630;2023-05-21T15:29:16;30.00;69.50
16229;DHT22;8222;51.462;12.630;2023-05-21T15:31:51;30.00;70.90
16229;DHT22;8222;51.462;12.630;2023-05-21T15:34:16;30.10;70.90
16229;DHT22;8222;51.462;12.630;2023-05-21T15:36:47;30.20;72.30
16229;DHT22;8222;51.462;12.630;2023-05-21T15:39:28;30.50;69.10
16229;DHT22;8222;51.462;12.630;2023-05-21T15:42:32;30.90;68.20
16229;DHT22;8222;51.462;12.630;2023-05-21T15:45:09;31.50;68.50
16229;DHT22;8222;51.462;12.630;2023-05-21T15:47:38;32.30;67.80
16229;DHT22;8222;51.462;12.630;2023-05-21T15:50:12;32.40;66.30
16229;DHT22;8222;51.462;12.630;2023-05-21T15:56:02;32.80;65.50
16229;DHT22;8222;51.462;12.630;2023-05-21T15:58:33;32.90;65.40
16229;DHT22;8222;51.462;12.630;2023-05-21T16:01:05;33.00;65.40
16229;DHT22;8222;51.462;12.630;2023-05-21T16:03:35;32.80;64.90
16229;DHT22;8222;51.462;12.630;2023-05-21T16:06:12;32.40;65.00
16229;DHT22;8222;51.462;12.630;2023-05-21T16:08:48;32.60;65.60
16229;DHT22;8222;51.462;12.630;2023-05-21T16:11:23;32.70;66.00
16229;DHT22;8222;51.462;12.630;2023-05-21T16:13:54;32.80;64.30
16229;DHT22;8222;51.462;12.630;2023-05-21T16:16:20;32.70;64.70
16229;DHT22;8222;51.462;12.630;2023-05-21T16:18:51;32.70;64.00
16229;DHT22;8222;51.462;12.630;2023-05-21T16:21:56;32.60;62.90
16229;DHT22;8222;51.462;12.630;2023-05-21T16:24:48;32.10;63.40
16229;DHT22;8222;51.462;12.630;2023-05-21T16:27:16;32.10;63.70
16229;DHT22;8222;51.462;12.630;2023-05-21T16:29:43;31.70;64.50
16229;DHT22;8222;51.462;12.630;2023-05-21T16:32:14;31.10;64.80
16229;DHT22;8222;51.462;12.630;2023-05-21T16:34:50;30.70;66.80
16229;DHT22;8222;51.462;12.630;2023-05-21T16:37:28;30.70;68.40
16229;DHT22;8222;51.462;12.630;2023-05-21T16:40:01;30.60;70.20
16229;DHT22;8222;51.462;12.630;2023-05-21T16:42:40;30.30;70.50
16229;DHT22;8222;51.462;12.630;2023-05-21T16:45:11;29.90;70.60
16229;DHT22;8222;51.462;12.630;2023-05-21T16:47:50;29.70;70.90
16229;DHT22;8222;51.462;12.630;2023-05-21T16:50:20;29.50;72.20
16229;DHT22;8222;51.462;12.630;2023-05-21T16:52:53;29.40;72.10
16229;DHT22;8222;51.462;12.630;2023-05-21T16:55:27;29.10;72.90
16229;DHT22;8222;51.462;12.630;2023-05-21T16:57:55;29.00;75.40
16229;DHT22;8222;51.462;12.630;2023-05-21T17:00:22;28.90;77.50
16229;DHT22;8222;51.462;12.630;2023-05-21T17:02:49;28.70;78.90
16229;DHT22;8222;51.462;12.630;2023-05-21T17:05:21;28.60;80.50
16229;DHT22;8222;51.462;12.630;2023-05-21T17:07:48;28.40;81.90
16229;DHT22;8222;51.462;12.630;2023-05-21T17:10:14;28.20;84.40
16229;DHT22;8222;51.462;12.630;2023-05-21T17:12:45;28.10;87.10
16229;DHT22;8222;51.462;12.630;2023-05-21T17:15:19;28.00;88.80
16229;DHT22;8222;51.462;12.630;2023-05-21T17:17:47;27.80;90.10
16229;DHT22;8222;51.462;12.630;2023-05-21T17:20:13;27.70;91.20
16229;DHT22;8222;51.462;12.630;2023-05-21T17:22:38;27.60;92.70
16229;DHT22;8222;51.462;12.630;2023-05-21T17:25:15;27.50;93.60
16229;DHT22;8222;51.462;12.630;2023-05-21T17:27:41;27.60;94.10
16229;DHT22;8222;51.462;12.630;2023-05-21T17:30:09;27.60;94.90
16229;DHT22;8222;51.462;12.630;2023-05-21T17:32:44;27.30;95.90
16229;DHT22;8222;51.462;12.630;2023-05-21T17:35:12;27.10;98.30
16229;DHT22;8222;51.462;12.630;2023-05-21T17:37:45;26.80;99.70
16229;DHT22;8222;51.462;12.630;2023-05-21T17:40:16;26.60;99.90
16229;DHT22;8222;51.462;12.630;2023-05-21T17:42:46;26.40;99.90
16229;DHT22;8222;51.462;12.630;2023-05-21T17:45:11;26.20;99.90
16229;DHT22;8222;51.462;12.630;2023-05-21T17:47:39;26.10;99.90
16229;DHT22;8222;51.462;12.630;2023-05-21T17:50:06;26.00;99.90
16229;DHT22;8222;51.462;12.630;2023-05-21T17:52:42;25.90;99.90
16229;DHT22;8222;51.462;12.630;2023-05-21T17:55:16;25.80;99.90
16229;DHT22;8222;51.462;12.630;2023-05-21T17:57:44;25.70;99.90
16229;DHT22;8222;51.462;12.630;2023-05-21T18:00:13;25.60;99.90
16229;DHT22;8222;51.462;12.630;2023-05-21T18:02:41;25.50;99.90
16229;DHT22;8222;51.462;12.630;2023-05-21T18:05:09;25.40;99.90
16229;DHT22;8222;51.462;12.630;2023-05-21T18:07:38;25.30;99.90
16229;DHT22;8222;51.462;12.630;2023-05-21T18:10:04;25.20;99.90
16229;DHT22;8222;51.462;12.630;2023-05-21T18:12:32;25.20;99.90
16229;DHT22;8222;51.462;12.630;2023-05-21T18:15:00;25.10;99.90
16229;DHT22;8222;51.462;12.630;2023-05-21T18:17:31;25.00;99.90
16229;DHT22;8222;51.462;12.630;2023-05-21T18:20:04;25.00;99.90
16229;DHT22;8222;51.462;12.630;2023-05-21T18:22:42;24.90;99.90
16229;DHT22;8222;51.462;12.630;2023-05-21T18:25:10;24.80;99.90
16229;DHT22;8222;51.462;12.630;2023-05-21T18:27:41;24.60;99.90
16229;DHT22;8222;51.462;12.630;2023-05-21T18:30:09;24.80;99.90
16229;DHT22;8222;51.462;12.630;2023-05-21T18:32:35;24.70;99.90
16229;DHT22;8222;51.462;12.630;2023-05-21T18:35:09;24.50;99.90